Time;durP1;ratioP1;P1;durP2;ratioP2;P2;SDS_P1;SDS_P2;PMS_P1;PMS_P2;Temp;Humidity;BMP_temperature;BMP_pressure;BME280_temperature;BME280_humidity;BME280_pressure;Samples;Min_cycle;Max_cycle;Signal;HPM_P1;HPM_P2
2021/04/29 00:01:45;;;;;;;4.53;3.10;;;16.40;42.30;;;;;;4936707;28;20051;-87
2021/04/29 00:04:11;;;;;;;5.40;3.50;;;16.30;42.30;;;;;;4940333;29;20023;-88
2021/04/29 00:06:37;;;;;;;4.90;3.38;;;16.30;42.40;;;;;;4929198;28;20485;-87
2021/04/29 00:09:04;;;;;;;5.00;3.28;;;16.30;42.40;;;;;;4923858;29;20027;-87
2021/04/29 00:11:31;;;;;;;4.68;3.15;;;16.30;42.50;;;;;;4908920;29;20039;-88
2021/04/29 00:13:57;;;;;;;5.00;3.10;;;16.20;42.40;;;;;;4936904;28;20026;-87
2021/04/29 00:16:23;;;;;;;5.20;3.30;;;16.20;42.50;;;;;;4944148;29;20046;-87
2021/04/29 00:18:50;;;;;;;5.15;3.42;;;16.20;42.50;;;;;;4933197;29;20036;-88
2021/04/29 00:21:15;;;;;;;5.15;3.25;;;16.10;42.50;;;;;;4940221;29;20028;-87
2021/04/29 00:23:41;;;;;;;4.78;2.85;;;16.10;42.60;;;;;;4950518;29;20023;-87
2021/04/29 00:26:07;;;;;;;4.45;3.17;;;16.10;42.70;;;;;;4940232;28;20035;-86
2021/04/29 00:28:33;;;;;;;5.25;3.50;;;16.00;42.60;;;;;;4969317;28;20039;-85
2021/04/29 00:30:59;;;;;;;5.05;3.20;;;16.00;43.30;;;;;;4950195;28;20036;-86
2021/04/29 00:33:25;;;;;;;5.05;3.10;;;16.00;42.80;;;;;;4979270;28;20035;-86
2021/04/29 00:35:51;;;;;;;4.93;3.28;;;16.00;42.80;;;;;;4946994;29;20043;-88
2021/04/29 00:38:17;;;;;;;6.13;3.75;;;15.90;42.80;;;;;;4920356;29;20035;-86
2021/04/29 00:40:43;;;;;;;5.63;3.70;;;15.90;42.80;;;;;;4961642;28;20031;-87
2021/04/29 00:43:12;;;;;;;4.80;3.05;;;15.90;42.80;;;;;;4926473;29;20024;-87
2021/04/29 00:45:39;;;;;;;5.15;3.40;;;15.90;42.90;;;;;;4961121;28;20038;-88
2021/04/29 00:48:05;;;;;;;4.20;2.97;;;15.80;42.90;;;;;;4941988;29;20090;-86
2021/04/29 00:50:31;;;;;;;5.18;3.33;;;15.80;43.00;;;;;;4924358;28;20077;-87
2021/04/29 00:52:57;;;;;;;6.85;3.55;;;15.80;43.00;;;;;;4933159;28;20058;-85
2021/04/29 00:55:23;;;;;;;4.88;3.10;;;15.80;43.00;;;;;;4948641;28;20028;-87
2021/04/29 00:57:49;;;;;;;5.40;3.63;;;15.70;43.00;;;;;;4922527;28;20142;-88
2021/04/29 01:00:16;;;;;;;4.72;3.08;;;15.70;43.10;;;;;;4923532;29;20458;-87
2021/04/29 01:02:48;;;;;;;5.63;3.60;;;15.70;43.10;;;;;;4949407;28;20102;-87
2021/04/29 01:05:36;;;;;;;5.10;3.40;;;15.70;43.20;;;;;;4964467;28;20024;-87
2021/04/29 01:08:16;;;;;;;5.20;3.35;;;15.60;43.20;;;;;;4954566;28;20031;-88
2021/04/29 01:10:53;;;;;;;5.32;3.60;;;15.60;43.20;;;;;;4914575;29;20042;-87
2021/04/29 01:13:24;;;;;;;5.32;3.58;;;15.60;43.30;;;;;;4928135;29;20031;-87
2021/04/29 01:15:50;;;;;;;5.10;3.50;;;15.50;43.30;;;;;;4949903;28;20535;-88
2021/04/29 01:18:20;;;;;;;5.45;3.28;;;15.50;43.30;;;;;;4936428;29;20082;-88
2021/04/29 01:21:05;;;;;;;5.18;3.47;;;15.50;43.40;;;;;;4927249;28;20055;-88
2021/04/29 01:23:41;;;;;;;4.90;3.35;;;15.40;43.40;;;;;;4940108;28;20058;-86
2021/04/29 01:26:29;;;;;;;5.03;3.33;;;15.40;43.40;;;;;;4935860;29;20031;-87
2021/04/29 01:28:56;;;;;;;5.65;3.42;;;15.40;43.50;;;;;;4929676;29;20047;-87
2021/04/29 01:31:26;;;;;;;5.18;3.38;;;15.40;43.50;;;;;;4925051;28;20054;-88
2021/04/29 01:33:53;;;;;;;4.95;3.35;;;15.30;43.50;;;;;;4950378;29;20083;-88
2021/04/29 01:36:20;;;;;;;5.32;3.50;;;15.30;43.60;;;;;;4943841;29;20060;-88
2021/04/29 01:38:47;;;;;;;5.95;3.30;;;15.30;43.60;;;;;;4963988;28;20039;-86
2021/04/29 01:41:13;;;;;;;6.05;3.70;;;15.20;43.60;;;;;;4938973;29;20066;-89
2021/04/29 01:43:41;;;;;;;5.40;3.85;;;15.20;43.60;;;;;;4948128;29;20055;-88
2021/04/29 01:46:07;;;;;;;5.03;3.28;;;15.20;43.70;;;;;;4972972;28;20055;-87
2021/04/29 01:48:33;;;;;;;4.60;3.08;;;15.20;43.70;;;;;;4940258;29;20469;-88
2021/04/29 01:51:00;;;;;;;4.78;3.28;;;15.10;43.70;;;;;;4917457;29;20032;-88
2021/04/29 01:53:27;;;;;;;5.97;3.70;;;15.10;43.70;;;;;;4936543;29;20032;-88
2021/04/29 01:55:54;;;;;;;5.47;3.50;;;15.10;43.80;;;;;;4908323;29;20040;-88
2021/04/29 01:58:21;;;;;;;5.38;3.53;;;15.10;43.90;;;;;;4959705;28;20040;-88
2021/04/29 02:00:47;;;;;;;5.57;3.75;;;15.00;43.80;;;;;;4918937;29;20126;-89
2021/04/29 02:03:13;;;;;;;5.57;3.63;;;15.00;43.80;;;;;;4952525;29;20086;-88
2021/04/29 02:05:39;;;;;;;6.10;3.75;;;15.00;43.90;;;;;;4946013;29;20032;-87
2021/04/29 02:08:05;;;;;;;5.22;3.30;;;15.00;44.00;;;;;;4960640;28;20044;-88
2021/04/29 02:10:32;;;;;;;5.13;3.55;;;15.00;44.00;;;;;;4928694;29;20043;-88
2021/04/29 02:12:58;;;;;;;5.20;3.65;;;14.90;44.00;;;;;;4956188;28;20035;-86
2021/04/29 02:15:29;;;;;;;5.55;3.92;;;14.90;44.10;;;;;;4922878;29;20036;-88
2021/04/29 02:18:05;;;;;;;6.05;4.10;;;14.90;44.20;;;;;;4953121;28;20069;-87
2021/04/29 02:20:33;;;;;;;5.43;4.05;;;14.80;44.20;;;;;;4930877;29;20031;-87
2021/04/29 02:22:59;;;;;;;5.60;3.80;;;14.80;44.20;;;;;;4929852;29;20054;-87
2021/04/29 02:25:28;;;;;;;5.95;3.63;;;14.80;44.20;;;;;;4966172;28;20043;-87
2021/04/29 02:27:58;;;;;;;5.53;3.90;;;14.70;44.20;;;;;;4929815;29;20121;-87
2021/04/29 02:30:25;;;;;;;5.63;4.10;;;14.70;44.30;;;;;;4911622;29;20441;-87
2021/04/29 02:32:51;;;;;;;4.38;3.25;;;14.70;44.30;;;;;;4922011;29;20043;-88
2021/04/29 02:35:18;;;;;;;5.55;4.10;;;14.70;45.00;;;;;;4947087;28;20048;-88
2021/04/29 02:37:47;;;;;;;5.10;3.38;;;14.70;44.40;;;;;;4923354;29;20107;-88
2021/04/29 02:40:14;;;;;;;5.30;3.58;;;14.70;44.50;;;;;;4917054;29;20028;-87
2021/04/29 02:42:41;;;;;;;5.10;3.47;;;14.60;44.50;;;;;;4906740;29;20032;-89
2021/04/29 02:45:11;;;;;;;5.70;3.83;;;14.60;44.50;;;;;;4903609;29;20036;-88
2021/04/29 02:47:44;;;;;;;5.10;3.90;;;14.60;44.60;;;;;;4899552;29;20048;-88
2021/04/29 02:50:19;;;;;;;5.43;3.75;;;14.60;44.70;;;;;;4956589;28;20032;-88
2021/04/29 02:52:46;;;;;;;6.00;3.83;;;14.50;44.70;;;;;;4902336;29;20553;-88
2021/04/29 02:55:13;;;;;;;5.32;3.70;;;14.50;44.70;;;;;;4886831;29;20029;-88
2021/04/29 02:57:39;;;;;;;5.35;3.70;;;14.50;44.70;;;;;;4949484;29;20036;-88
2021/04/29 03:00:13;;;;;;;5.40;4.15;;;14.50;44.80;;;;;;4907227;29;20036;-88
2021/04/29 03:02:39;;;;;;;6.80;3.63;;;14.40;44.80;;;;;;4908809;29;20024;-88
2021/04/29 03:05:10;;;;;;;5.95;4.07;;;14.40;44.80;;;;;;4913638;29;20071;-88
2021/04/29 03:07:41;;;;;;;5.82;3.90;;;14.40;44.90;;;;;;4914149;29;20032;-87
2021/04/29 03:10:08;;;;;;;5.05;3.63;;;14.40;45.00;;;;;;4903805;29;20044;-87
2021/04/29 03:12:34;;;;;;;5.40;3.60;;;14.40;44.90;;;;;;4913473;29;20032;-87
2021/04/29 03:15:01;;;;;;;5.38;3.92;;;14.30;44.90;;;;;;4905135;29;20112;-88
2021/04/29 03:17:27;;;;;;;5.80;4.07;;;14.30;45.00;;;;;;4892212;29;20108;-85
2021/04/29 03:19:53;;;;;;;5.45;3.95;;;14.30;45.00;;;;;;4927684;29;20107;-85
2021/04/29 03:22:20;;;;;;;5.10;3.63;;;14.30;45.10;;;;;;4936399;29;20024;-87
2021/04/29 03:24:48;;;;;;;5.40;3.80;;;14.30;45.10;;;;;;4926633;29;20032;-86
2021/04/29 03:27:14;;;;;;;5.40;4.10;;;14.30;45.10;;;;;;4904101;29;20028;-86
2021/04/29 03:29:40;;;;;;;5.40;4.13;;;14.30;45.20;;;;;;4924347;29;20040;-86
2021/04/29 03:32:05;;;;;;;5.40;3.63;;;14.20;45.10;;;;;;4935437;29;20028;-86
2021/04/29 03:34:31;;;;;;;6.28;4.07;;;14.20;45.20;;;;;;4914444;29;20064;-86
2021/04/29 03:36:57;;;;;;;6.00;4.10;;;14.20;45.20;;;;;;4950333;28;20034;-86
2021/04/29 03:39:23;;;;;;;5.60;4.07;;;14.20;45.30;;;;;;4922780;28;20087;-85
2021/04/29 03:41:48;;;;;;;5.53;4.20;;;14.20;45.30;;;;;;4921865;29;20035;-86
2021/04/29 03:44:14;;;;;;;5.50;3.80;;;14.10;45.30;;;;;;4969297;28;20095;-86
2021/04/29 03:46:40;;;;;;;5.60;4.00;;;14.10;45.30;;;;;;4941699;28;20031;-87
2021/04/29 03:49:05;;;;;;;5.97;3.95;;;14.10;46.00;;;;;;4947893;28;20036;-86
2021/04/29 03:51:31;;;;;;;5.55;3.97;;;14.10;45.40;;;;;;4937190;28;20068;-86
2021/04/29 03:53:58;;;;;;;6.00;4.00;;;14.10;45.40;;;;;;4930091;28;20023;-86
2021/04/29 03:56:24;;;;;;;5.60;4.30;;;14.10;45.50;;;;;;4931868;28;20109;-86
2021/04/29 03:58:49;;;;;;;5.75;3.95;;;14.10;45.50;;;;;;4939983;28;20028;-85
2021/04/29 04:01:15;;;;;;;6.00;4.25;;;14.10;45.60;;;;;;4914226;28;20054;-85
2021/04/29 04:03:41;;;;;;;5.20;4.10;;;14.00;45.60;;;;;;4931027;29;20035;-87
2021/04/29 04:06:07;;;;;;;6.50;4.43;;;14.00;45.60;;;;;;4932895;28;20058;-85
2021/04/29 04:08:32;;;;;;;5.20;3.92;;;14.00;45.70;;;;;;4930216;29;20044;-86
2021/04/29 04:10:58;;;;;;;5.43;4.00;;;14.00;45.70;;;;;;4920449;29;20028;-86
2021/04/29 04:13:24;;;;;;;5.15;3.80;;;14.00;45.70;;;;;;4949467;28;20038;-86
2021/04/29 04:15:50;;;;;;;5.40;3.95;;;14.00;45.80;;;;;;4927472;28;20415;-85
2021/04/29 04:18:16;;;;;;;5.57;4.15;;;14.00;45.80;;;;;;4932543;29;20504;-85
2021/04/29 04:20:42;;;;;;;5.60;4.05;;;14.00;45.80;;;;;;4940793;28;20039;-85
2021/04/29 04:23:08;;;;;;;6.10;4.18;;;13.90;45.90;;;;;;4920140;29;20436;-86
2021/04/29 04:25:34;;;;;;;5.93;4.22;;;13.90;46.00;;;;;;4943970;28;20499;-88
2021/04/29 04:28:00;;;;;;;5.22;3.83;;;13.90;46.80;;;;;;4920001;29;20043;-86
2021/04/29 04:30:26;;;;;;;5.07;3.72;;;13.90;46.30;;;;;;4909373;29;20036;-86
2021/04/29 04:32:52;;;;;;;6.13;4.10;;;13.90;46.40;;;;;;4918332;28;20031;-87
2021/04/29 04:35:18;;;;;;;5.55;3.90;;;13.90;46.50;;;;;;4919136;29;20099;-86
2021/04/29 04:37:45;;;;;;;5.40;3.92;;;13.80;46.70;;;;;;4920600;29;20031;-85
2021/04/29 04:40:11;;;;;;;5.95;3.92;;;13.80;46.80;;;;;;4952452;28;20122;-85
2021/04/29 04:42:38;;;;;;;5.80;3.88;;;13.80;46.80;;;;;;4944778;29;20028;-82
2021/04/29 04:45:06;;;;;;;5.43;4.03;;;13.80;46.90;;;;;;4926249;29;20037;-90
2021/04/29 04:47:31;;;;;;;5.43;4.00;;;13.80;46.90;;;;;;4939293;29;20031;-90
2021/04/29 04:49:57;;;;;;;5.28;3.72;;;13.80;46.90;;;;;;4905646;28;20028;-90
2021/04/29 04:52:23;;;;;;;5.82;4.18;;;13.70;46.90;;;;;;4923021;29;20028;-92
2021/04/29 04:54:51;;;;;;;5.82;3.70;;;13.70;46.90;;;;;;4925664;28;20036;-91
2021/04/29 04:57:17;;;;;;;6.18;3.92;;;13.70;47.00;;;;;;4945673;28;20684;-92
2021/04/29 04:59:43;;;;;;;5.47;3.97;;;13.70;47.10;;;;;;4943645;29;20037;-91
2021/04/29 05:02:09;;;;;;;6.03;4.20;;;13.70;47.10;;;;;;4943894;28;20029;-90
2021/04/29 05:04:35;;;;;;;6.32;4.40;;;13.70;47.20;;;;;;4960376;28;20118;-84
2021/04/29 05:07:03;;;;;;;6.38;4.40;;;13.70;47.20;;;;;;4910349;28;20027;-84
2021/04/29 05:09:30;;;;;;;5.68;4.32;;;13.70;47.30;;;;;;4971617;28;20070;-83
2021/04/29 05:11:56;;;;;;;5.18;4.18;;;13.60;47.30;;;;;;4935620;28;20054;-85
2021/04/29 05:14:23;;;;;;;5.53;4.07;;;13.60;47.40;;;;;;4914017;29;20040;-85
2021/04/29 05:16:48;;;;;;;5.88;4.32;;;13.60;47.50;;;;;;4943309;29;20034;-82
2021/04/29 05:19:14;;;;;;;5.60;4.10;;;13.60;47.50;;;;;;4923846;29;20027;-84
2021/04/29 05:21:40;;;;;;;5.97;4.30;;;13.60;47.50;;;;;;4923116;29;20043;-83
2021/04/29 05:24:06;;;;;;;5.82;4.35;;;13.50;47.50;;;;;;4947841;28;20122;-86
2021/04/29 05:26:33;;;;;;;6.13;4.22;;;13.50;47.60;;;;;;4916299;29;20040;-87
2021/04/29 05:28:59;;;;;;;6.00;4.47;;;13.50;47.60;;;;;;4928950;29;20032;-85
2021/04/29 05:31:24;;;;;;;5.90;4.25;;;13.50;47.70;;;;;;4969520;28;20574;-84
2021/04/29 05:33:50;;;;;;;5.93;4.15;;;13.50;47.70;;;;;;4957241;28;20047;-86
2021/04/29 05:36:16;;;;;;;5.45;3.90;;;13.50;47.80;;;;;;4909066;28;20140;-90
2021/04/29 05:38:41;;;;;;;5.78;4.38;;;13.50;47.80;;;;;;4922345;29;20130;-86
2021/04/29 05:41:07;;;;;;;5.78;4.18;;;13.40;47.80;;;;;;4941968;28;20038;-86
2021/04/29 05:43:33;;;;;;;6.03;4.65;;;13.50;48.00;;;;;;4945625;29;20031;-85
2021/04/29 05:45:59;;;;;;;5.53;4.47;;;13.50;48.00;;;;;;4930345;29;20042;-86
2021/04/29 05:48:25;;;;;;;6.68;4.65;;;13.40;48.00;;;;;;4924768;29;20035;-86
2021/04/29 05:50:50;;;;;;;6.53;4.72;;;13.40;48.00;;;;;;4913084;29;20038;-85
2021/04/29 05:53:16;;;;;;;6.53;4.55;;;13.40;48.10;;;;;;4905248;28;20099;-87
2021/04/29 05:55:42;;;;;;;5.95;4.57;;;13.40;48.20;;;;;;4930157;28;20039;-85
2021/04/29 05:58:08;;;;;;;6.43;4.50;;;13.40;48.30;;;;;;4943919;29;20158;-86
2021/04/29 06:00:37;;;;;;;6.20;4.70;;;13.30;48.30;;;;;;4943662;28;20090;-86
2021/04/29 06:03:03;;;;;;;6.43;4.80;;;13.30;48.30;;;;;;4977591;28;20090;-87
2021/04/29 06:05:29;;;;;;;5.88;4.40;;;13.30;48.50;;;;;;4938163;29;20460;-86
2021/04/29 06:07:59;;;;;;;6.15;4.85;;;13.30;48.60;;;;;;4922346;29;20063;-86
2021/04/29 06:10:26;;;;;;;6.78;4.75;;;13.40;48.60;;;;;;4919565;28;20132;-85
2021/04/29 06:12:52;;;;;;;5.85;4.70;;;13.30;48.60;;;;;;4944663;28;20059;-87
2021/04/29 06:15:19;;;;;;;5.78;4.50;;;13.30;48.70;;;;;;4922493;28;20895;-86
2021/04/29 06:17:45;;;;;;;6.18;4.65;;;13.30;48.90;;;;;;4925320;28;20284;-87
2021/04/29 06:20:12;;;;;;;6.90;5.25;;;13.30;48.70;;;;;;4947867;29;20067;-84
2021/04/29 06:22:38;;;;;;;7.00;5.13;;;13.30;48.90;;;;;;4955944;28;20368;-85
2021/04/29 06:25:05;;;;;;;7.25;4.68;;;13.30;49.00;;;;;;4965581;28;20032;-84
2021/04/29 06:27:31;;;;;;;6.80;4.75;;;13.30;49.00;;;;;;4922120;29;20058;-85
2021/04/29 06:29:56;;;;;;;6.85;5.05;;;13.30;48.90;;;;;;4921901;29;20032;-86
2021/04/29 06:32:22;;;;;;;6.93;5.25;;;13.30;49.00;;;;;;4937836;29;20039;-87
2021/04/29 06:34:48;;;;;;;6.53;4.90;;;13.30;49.00;;;;;;4951182;28;20063;-85
2021/04/29 06:37:17;;;;;;;6.60;5.22;;;13.30;49.10;;;;;;4937920;28;20480;-86
2021/04/29 06:39:43;;;;;;;6.50;5.22;;;13.20;49.20;;;;;;4970462;28;20035;-86
2021/04/29 06:42:09;;;;;;;6.32;4.90;;;13.30;49.30;;;;;;4907356;29;20038;-86
2021/04/29 06:44:35;;;;;;;6.63;5.22;;;13.30;49.40;;;;;;4950352;28;20032;-88
2021/04/29 06:47:00;;;;;;;7.80;5.40;;;13.20;49.50;;;;;;4890263;29;20490;-87
2021/04/29 06:49:27;;;;;;;7.43;5.20;;;13.30;49.60;;;;;;4957826;28;20035;-86
2021/04/29 06:51:53;;;;;;;6.85;5.22;;;13.30;49.80;;;;;;4954867;28;20085;-86
2021/04/29 06:54:19;;;;;;;6.90;5.65;;;13.20;49.80;;;;;;4937163;29;20093;-86
2021/04/29 06:56:45;;;;;;;6.85;5.38;;;13.30;49.90;;;;;;4954257;28;20535;-85
2021/04/29 06:59:11;;;;;;;7.13;5.38;;;13.20;49.90;;;;;;4910421;29;20140;-83
2021/04/29 07:01:37;;;;;;;7.80;5.57;;;13.30;50.00;;;;;;4951384;28;20075;-85
2021/04/29 07:04:03;;;;;;;7.18;5.43;;;13.30;50.20;;;;;;4922024;29;20038;-87
2021/04/29 07:06:29;;;;;;;7.20;5.40;;;13.30;50.20;;;;;;4934027;29;20015;-86
2021/04/29 07:08:56;;;;;;;6.80;5.28;;;13.20;50.30;;;;;;4929393;28;20038;-86
2021/04/29 07:11:22;;;;;;;7.88;5.78;;;13.30;50.30;;;;;;4965197;28;20482;-86
2021/04/29 07:13:48;;;;;;;7.63;5.50;;;13.30;50.30;;;;;;4938123;28;20058;-86
2021/04/29 07:16:14;;;;;;;7.40;5.55;;;13.30;50.30;;;;;;4940494;29;20065;-86
2021/04/29 07:18:39;;;;;;;6.70;5.20;;;13.30;50.20;;;;;;4925303;29;20039;-86
2021/04/29 07:21:05;;;;;;;7.25;5.35;;;13.30;50.20;;;;;;4922067;28;20042;-86
2021/04/29 07:23:31;;;;;;;6.97;5.75;;;13.30;50.20;;;;;;4910997;29;20492;-87
2021/04/29 07:25:57;;;;;;;6.70;5.20;;;13.30;50.20;;;;;;4951117;28;20024;-86
2021/04/29 07:28:23;;;;;;;6.85;5.40;;;13.30;50.20;;;;;;4936879;28;20036;-85
2021/04/29 07:30:50;;;;;;;6.53;4.97;;;13.30;50.20;;;;;;4946630;28;20093;-85
2021/04/29 07:33:16;;;;;;;7.88;5.95;;;13.30;50.10;;;;;;4940449;29;20100;-85
2021/04/29 07:35:42;;;;;;;6.60;5.32;;;13.30;50.20;;;;;;4925000;29;20052;-84
2021/04/29 07:38:09;;;;;;;7.57;5.40;;;13.30;50.20;;;;;;4974645;28;20101;-85
2021/04/29 07:40:35;;;;;;;6.82;5.03;;;13.30;50.20;;;;;;4957519;28;20148;-90
2021/04/29 07:43:01;;;;;;;7.05;5.05;;;13.30;50.20;;;;;;4933867;28;20075;-85
2021/04/29 07:45:28;;;;;;;7.50;5.47;;;13.30;50.30;;;;;;4940104;29;20054;-85
2021/04/29 07:47:53;;;;;;;7.20;5.15;;;13.30;50.20;;;;;;4940497;29;20424;-91
2021/04/29 07:50:19;;;;;;;7.00;5.18;;;13.30;50.20;;;;;;4923947;29;20027;-83
2021/04/29 07:52:45;;;;;;;6.47;5.07;;;13.30;50.20;;;;;;4940134;29;20373;-90
2021/04/29 07:55:13;;;;;;;6.75;4.82;;;13.40;50.30;;;;;;4923194;29;20107;-85
2021/04/29 07:57:40;;;;;;;6.35;4.95;;;13.40;50.30;;;;;;4956303;28;20058;-85
2021/04/29 08:00:08;;;;;;;6.13;4.60;;;13.40;50.20;;;;;;4974239;28;20119;-86
2021/04/29 08:02:35;;;;;;;6.40;5.00;;;13.40;50.20;;;;;;4952707;28;20023;-85
2021/04/29 08:05:01;;;;;;;6.38;5.10;;;13.40;50.20;;;;;;4982580;28;20035;-88
2021/04/29 08:07:27;;;;;;;6.95;4.65;;;13.40;50.20;;;;;;4938806;29;20020;-89
2021/04/29 08:09:53;;;;;;;6.13;4.63;;;13.40;50.20;;;;;;4939888;29;20070;-82
2021/04/29 08:12:19;;;;;;;6.15;4.97;;;13.40;50.20;;;;;;4956053;28;20027;-83
2021/04/29 08:14:45;;;;;;;6.63;5.00;;;13.40;50.20;;;;;;4923079;29;20126;-84
2021/04/29 08:17:11;;;;;;;6.25;4.82;;;13.40;50.20;;;;;;4914341;29;20159;-84
2021/04/29 08:19:37;;;;;;;5.78;4.53;;;13.40;50.90;;;;;;4921353;29;20499;-83
2021/04/29 08:22:03;;;;;;;5.97;4.32;;;13.40;50.20;;;;;;4911176;29;20417;-81
2021/04/29 08:24:30;;;;;;;6.10;4.82;;;13.40;50.20;;;;;;4922548;28;20043;-85
2021/04/29 08:26:56;;;;;;;6.25;4.70;;;13.40;50.20;;;;;;4939096;29;20087;-84
2021/04/29 08:29:23;;;;;;;6.47;4.75;;;13.50;50.30;;;;;;4953089;28;20526;-84
2021/04/29 08:31:49;;;;;;;6.60;4.75;;;13.40;50.20;;;;;;4950951;29;20038;-83
2021/04/29 08:34:16;;;;;;;6.78;4.57;;;13.40;50.30;;;;;;4938899;29;20114;-84
2021/04/29 08:36:42;;;;;;;6.15;4.78;;;13.50;50.30;;;;;;4947268;28;20066;-84
2021/04/29 08:39:08;;;;;;;5.80;4.60;;;13.40;50.30;;;;;;4943448;29;20118;-81
2021/04/29 08:41:35;;;;;;;7.20;5.20;;;13.50;50.40;;;;;;4949916;28;20030;-83
2021/04/29 08:44:01;;;;;;;5.95;4.43;;;13.50;50.40;;;;;;4925771;29;20028;-84
2021/04/29 08:46:27;;;;;;;5.75;4.65;;;13.50;50.40;;;;;;4965967;28;20498;-82
2021/04/29 08:48:54;;;;;;;6.38;4.90;;;13.50;50.40;;;;;;4930884;29;20031;-83
2021/04/29 08:51:21;;;;;;;5.85;4.70;;;13.50;50.50;;;;;;4935728;29;20044;-83
2021/04/29 08:53:48;;;;;;;6.28;4.90;;;13.50;50.50;;;;;;4919044;29;20079;-84
2021/04/29 08:56:22;;;;;;;6.28;4.75;;;13.50;50.50;;;;;;4965355;28;20058;-81
2021/04/29 08:58:49;;;;;;;6.40;4.88;;;13.50;50.50;;;;;;4933841;29;20035;-82
2021/04/29 09:01:15;;;;;;;6.35;4.95;;;13.50;50.40;;;;;;4950868;28;20070;-82
2021/04/29 09:03:41;;;;;;;5.80;4.78;;;13.50;50.40;;;;;;4916463;29;20091;-84
2021/04/29 09:06:07;;;;;;;7.28;5.10;;;13.60;50.50;;;;;;4919350;29;20539;-84
2021/04/29 09:08:35;;;;;;;5.90;4.32;;;13.50;50.60;;;;;;4931585;28;20094;-83
2021/04/29 09:11:10;;;;;;;6.53;4.70;;;13.60;50.60;;;;;;4947329;29;20024;-83
2021/04/29 09:13:36;;;;;;;;;;;13.60;50.60;;;;;;4947558;28;20027;-81
2021/04/29 09:16:11;;;;;;;5.43;4.18;;;13.60;50.40;;;;;;4949985;28;19958;-81
2021/04/29 09:18:40;;;;;;;5.65;4.32;;;13.60;50.40;;;;;;4937755;29;20027;-83
2021/04/29 09:21:13;;;;;;;6.40;4.72;;;13.60;50.50;;;;;;4953335;28;20041;-82
2021/04/29 09:23:41;;;;;;;6.82;4.97;;;13.60;50.60;;;;;;4921419;29;20023;-83
2021/04/29 09:26:15;;;;;;;6.45;4.78;;;13.60;50.60;;;;;;4930960;29;20032;-81
2021/04/29 09:28:54;;;;;;;6.37;4.70;;;13.60;50.70;;;;;;4927752;29;20066;-82
2021/04/29 09:31:21;;;;;;;6.53;4.90;;;13.60;50.70;;;;;;4936767;28;20459;-81
2021/04/29 09:33:58;;;;;;;6.30;4.85;;;13.70;50.70;;;;;;4963112;28;20045;-82
2021/04/29 09:36:33;;;;;;;6.60;4.97;;;13.70;50.80;;;;;;4940154;28;20055;-84
2021/04/29 09:39:11;;;;;;;6.40;5.22;;;13.70;50.90;;;;;;4947360;28;20391;-80
2021/04/29 09:41:46;;;;;;;5.95;4.20;;;13.60;50.80;;;;;;4988798;28;20080;-82
2021/04/29 09:44:23;;;;;;;5.82;4.45;;;13.70;50.80;;;;;;4956996;28;20176;-88
2021/04/29 09:46:48;;;;;;;6.43;4.60;;;13.70;50.80;;;;;;4938862;29;20054;-87
2021/04/29 09:49:17;;;;;;;5.75;4.57;;;13.70;50.70;;;;;;4948685;28;20089;-85
2021/04/29 09:51:43;;;;;;;7.50;5.00;;;13.70;50.70;;;;;;4976153;28;20026;-93
2021/04/29 09:54:09;;;;;;;6.65;5.20;;;13.70;50.70;;;;;;4948592;29;20523;-90
2021/04/29 09:56:35;;;;;;;5.93;4.43;;;13.70;50.80;;;;;;4968877;28;20165;-82
2021/04/29 09:59:01;;;;;;;5.90;4.57;;;13.70;50.80;;;;;;4982666;28;20054;-89
2021/04/29 10:01:27;;;;;;;6.50;4.97;;;13.70;50.70;;;;;;4982817;28;20030;-83
2021/04/29 10:03:57;;;;;;;6.88;4.80;;;13.70;50.80;;;;;;4950987;28;20039;-84
2021/04/29 10:06:26;;;;;;;5.95;4.53;;;13.80;50.80;;;;;;4937596;29;20054;-85
2021/04/29 10:08:52;;;;;;;7.70;5.45;;;13.80;50.80;;;;;;4920957;29;20027;-84
2021/04/29 10:11:22;;;;;;;6.68;5.03;;;13.70;50.70;;;;;;4945332;28;20031;-83
2021/04/29 10:13:54;;;;;;;6.25;4.78;;;13.80;50.80;;;;;;4926062;28;20155;-83
2021/04/29 10:16:27;;;;;;;5.97;4.70;;;13.80;50.80;;;;;;4945394;28;20023;-86
2021/04/29 10:18:54;;;;;;;7.93;5.38;;;13.80;50.80;;;;;;4943363;28;20031;-84
2021/04/29 10:21:21;;;;;;;6.28;4.72;;;13.80;50.80;;;;;;4955132;28;20027;-85
2021/04/29 10:23:48;;;;;;;6.32;4.43;;;13.80;50.80;;;;;;4948311;28;20467;-85
2021/04/29 10:26:31;;;;;;;6.85;5.10;;;13.80;50.80;;;;;;4956370;28;20460;-81
2021/04/29 10:29:03;;;;;;;6.60;4.85;;;13.80;50.90;;;;;;4978099;28;20031;-82
2021/04/29 10:31:31;;;;;;;6.03;4.75;;;13.80;50.90;;;;;;4943839;28;20061;-85
2021/04/29 10:34:19;;;;;;;6.43;4.82;;;13.80;50.80;;;;;;4945025;28;20092;-85
2021/04/29 10:36:49;;;;;;;6.65;4.93;;;13.80;50.90;;;;;;4933574;28;20054;-84
2021/04/29 10:39:21;;;;;;;6.05;4.43;;;13.80;50.90;;;;;;4979426;28;20037;-84
2021/04/29 10:42:05;;;;;;;5.88;4.68;;;13.80;50.90;;;;;;4930485;29;20027;-86
2021/04/29 10:44:45;;;;;;;6.30;4.90;;;13.80;50.90;;;;;;4958316;28;20079;-86
2021/04/29 10:47:25;;;;;;;6.80;4.85;;;13.80;51.00;;;;;;4950274;28;20055;-90
2021/04/29 10:49:53;;;;;;;6.25;4.22;;;13.80;51.10;;;;;;4957201;28;20050;-90
2021/04/29 10:52:19;;;;;;;6.38;4.85;;;13.80;51.00;;;;;;4962189;28;20467;-88
2021/04/29 10:54:49;;;;;;;6.25;4.57;;;13.80;51.00;;;;;;4925676;29;20055;-86
2021/04/29 10:57:16;;;;;;;6.53;4.53;;;13.80;51.10;;;;;;4938083;29;20038;-82
2021/04/29 10:59:49;;;;;;;6.45;5.05;;;13.90;51.10;;;;;;4934139;29;20031;-80
2021/04/29 11:02:37;;;;;;;6.43;4.57;;;13.80;51.10;;;;;;4940573;29;20115;-81
2021/04/29 11:05:06;;;;;;;6.38;4.28;;;13.90;51.30;;;;;;4943301;28;20032;-81
2021/04/29 11:07:32;;;;;;;5.57;4.50;;;13.90;51.20;;;;;;4937858;29;20071;-81
2021/04/29 11:10:09;;;;;;;5.75;4.70;;;13.80;51.10;;;;;;4946344;28;20046;-81
2021/04/29 11:12:51;;;;;;;6.18;4.72;;;13.90;51.30;;;;;;4934076;28;20026;-81
2021/04/29 11:15:37;;;;;;;6.30;4.45;;;13.90;51.30;;;;;;4959232;28;20031;-81
2021/04/29 11:18:08;;;;;;;4.97;4.15;;;13.90;51.30;;;;;;4966529;28;20051;-81
2021/04/29 11:20:53;;;;;;;5.50;4.22;;;13.90;51.30;;;;;;4936836;28;20449;-81
2021/04/29 11:23:25;;;;;;;5.90;4.43;;;13.90;51.40;;;;;;4940429;28;20457;-81
2021/04/29 11:25:53;;;;;;;5.13;3.80;;;13.90;51.40;;;;;;4920657;28;20024;-81
2021/04/29 11:28:27;;;;;;;5.38;3.97;;;13.90;51.40;;;;;;4934196;29;20107;-81
2021/04/29 11:30:53;;;;;;;5.25;4.05;;;13.90;51.60;;;;;;4920365;29;20119;-81
2021/04/29 11:33:19;;;;;;;5.30;3.95;;;13.90;51.60;;;;;;4957609;28;20490;-82
2021/04/29 11:35:45;;;;;;;4.97;3.95;;;13.90;51.60;;;;;;4962485;28;20063;-81
2021/04/29 11:38:13;;;;;;;6.03;4.25;;;13.90;51.60;;;;;;4939542;29;20043;-81
2021/04/29 11:40:39;;;;;;;5.40;4.18;;;13.90;51.80;;;;;;4939380;29;20056;-81
2021/04/29 11:43:06;;;;;;;6.10;4.38;;;13.90;52.50;;;;;;4941010;28;20038;-81
2021/04/29 11:45:39;;;;;;;5.43;3.83;;;13.90;51.80;;;;;;4975185;28;20038;-82
2021/04/29 11:48:12;;;;;;;5.45;4.05;;;13.90;51.80;;;;;;4948223;28;20035;-81
2021/04/29 11:50:41;;;;;;;5.15;3.90;;;13.90;51.80;;;;;;4947023;28;20031;-83
2021/04/29 11:53:10;;;;;;;4.20;3.17;;;13.90;51.90;;;;;;4914611;28;20039;-82
2021/04/29 11:55:38;;;;;;;4.75;3.42;;;13.90;51.90;;;;;;4935598;29;20040;-81
2021/04/29 11:58:07;;;;;;;5.20;3.65;;;13.90;51.90;;;;;;4916792;29;20377;-82
2021/04/29 12:00:36;;;;;;;4.55;3.50;;;13.90;51.80;;;;;;4943786;28;20027;-82
2021/04/29 12:03:05;;;;;;;4.72;3.70;;;13.90;51.90;;;;;;4978553;28;20019;-81
2021/04/29 12:05:35;;;;;;;4.95;3.67;;;13.90;51.90;;;;;;4952527;28;20034;-80
2021/04/29 12:08:01;;;;;;;4.65;3.67;;;13.90;51.90;;;;;;4927331;29;20086;-81
2021/04/29 12:10:40;;;;;;;4.45;3.40;;;13.90;51.90;;;;;;4933102;28;20036;-81
2021/04/29 12:13:06;;;;;;;4.88;3.75;;;13.90;52.00;;;;;;4911212;29;20028;-82
2021/04/29 12:15:32;;;;;;;4.70;3.45;;;13.90;51.90;;;;;;4935932;28;20473;-81
2021/04/29 12:17:59;;;;;;;4.97;3.70;;;13.90;51.90;;;;;;4942102;28;20035;-82
2021/04/29 12:20:25;;;;;;;4.75;3.60;;;13.90;51.90;;;;;;4912381;29;20075;-82
2021/04/29 12:22:51;;;;;;;4.30;3.10;;;13.80;51.90;;;;;;4919694;29;20379;-80
2021/04/29 12:25:21;;;;;;;4.68;3.25;;;13.80;51.90;;;;;;4947670;28;20027;-79
2021/04/29 12:27:47;;;;;;;5.13;3.65;;;13.90;52.10;;;;;;4941634;28;20035;-82
2021/04/29 12:30:14;;;;;;;4.55;3.22;;;13.90;52.00;;;;;;4929610;28;20054;-84
2021/04/29 12:32:44;;;;;;;4.07;3.30;;;13.80;52.70;;;;;;4945686;28;20102;-82
2021/04/29 12:35:13;;;;;;;4.47;3.33;;;13.80;52.10;;;;;;4931385;29;20044;-81
2021/04/29 12:37:52;;;;;;;4.38;3.10;;;13.80;52.10;;;;;;4915889;29;20189;-80
2021/04/29 12:40:33;;;;;;;5.65;3.60;;;13.80;52.20;;;;;;4909345;29;20028;-81
2021/04/29 12:43:18;;;;;;;4.75;3.45;;;13.80;52.20;;;;;;4898247;29;20032;-80
2021/04/29 12:45:49;;;;;;;4.33;3.43;;;13.80;52.30;;;;;;4915874;29;20461;-81
2021/04/29 12:48:39;;;;;;;4.22;3.22;;;13.80;52.20;;;;;;4901719;29;20044;-83
2021/04/29 12:51:07;;;;;;;3.92;3.10;;;13.80;52.40;;;;;;4900433;29;20048;-83
2021/04/29 12:53:34;;;;;;;5.25;3.20;;;13.70;52.20;;;;;;4915827;29;20024;-83